createdAt,value
2022-09-30T00:01:44.618Z,13.30
2022-09-30T00:04:22.261Z,12.60
2022-09-30T00:06:51.902Z,12.90
2022-09-30T00:09:19.404Z,12.10
2022-09-30T00:14:22.386Z,12.90
2022-09-30T00:16:50.353Z,13.10
2022-09-30T00:19:17.607Z,12.80
2022-09-30T00:21:44.908Z,12.70
2022-09-30T00:31:36.056Z,12.50
2022-09-30T00:34:07.380Z,12.60
2022-09-30T00:36:46.424Z,12.50
2022-09-30T00:39:21.947Z,13.00
2022-09-30T00:41:53.870Z,12.30
2022-09-30T00:45:06.441Z,13.00
2022-09-30T00:47:46.251Z,13.20
2022-09-30T00:50:42.555Z,13.90
2022-09-30T00:56:20.520Z,13.40
2022-09-30T00:59:03.781Z,12.50
2022-09-30T01:01:32.318Z,12.70
2022-09-30T01:06:31.603Z,13.30
2022-09-30T01:11:28.767Z,13.10
2022-09-30T01:14:04.709Z,12.40
2022-09-30T01:16:56.099Z,12.00
2022-09-30T01:19:44.575Z,13.40
2022-09-30T01:25:17.660Z,13.40
2022-09-30T01:27:58.143Z,12.60
2022-09-30T01:31:01.976Z,13.60
2022-09-30T01:33:46.776Z,12.40
2022-09-30T01:37:01.079Z,13.30
2022-09-30T01:39:47.984Z,12.30
2022-09-30T01:42:32.960Z,12.70
2022-09-30T01:45:16.819Z,12.30
2022-09-30T01:47:53.631Z,11.80
2022-09-30T01:50:42.470Z,11.80
2022-09-30T01:53:40.003Z,12.70
2022-09-30T01:56:24.063Z,11.70
2022-09-30T01:59:25.406Z,11.80
2022-09-30T02:02:10.967Z,13.60
2022-09-30T02:04:45.148Z,12.00
2022-09-30T02:07:25.263Z,12.00
2022-09-30T02:10:14.437Z,13.10
2022-09-30T02:12:50.385Z,13.00
2022-09-30T02:15:26.109Z,11.80
2022-09-30T02:18:17.271Z,12.00
2022-09-30T02:20:49.807Z,12.00
2022-09-30T02:23:33.205Z,12.00
2022-09-30T02:26:07.838Z,12.60
2022-09-30T02:28:45.600Z,11.90
2022-09-30T02:31:15.650Z,11.70
2022-09-30T02:33:55.058Z,12.00
2022-09-30T02:36:36.151Z,12.20
2022-09-30T02:39:10.968Z,12.20
2022-09-30T02:41:47.699Z,11.10
2022-09-30T02:47:25.069Z,12.80
2022-09-30T02:50:08.954Z,13.30
2022-09-30T02:53:16.507Z,12.20
2022-09-30T02:56:23.463Z,12.00
2022-09-30T02:58:56.471Z,12.00
2022-09-30T03:01:25.791Z,12.00
2022-09-30T03:04:04.841Z,12.00
2022-09-30T03:06:34.889Z,11.90
2022-09-30T03:11:31.507Z,12.50
2022-09-30T03:14:38.743Z,11.30
2022-09-30T03:17:20.719Z,11.20
2022-09-30T03:20:22.994Z,12.20
2022-09-30T03:23:38.849Z,13.50
2022-09-30T03:26:40.780Z,12.00
2022-09-30T03:29:18.931Z,12.60
2022-09-30T03:32:03.578Z,12.00
2022-09-30T03:34:59.554Z,11.30
2022-09-30T03:37:31.561Z,11.50
2022-09-30T03:40:13.727Z,11.30
2022-09-30T03:43:41.965Z,12.00
2022-09-30T03:46:16.721Z,12.00
2022-09-30T03:48:49.215Z,11.80
2022-09-30T03:51:17.740Z,11.20
2022-09-30T03:56:15.365Z,12.40
2022-09-30T03:58:44.629Z,12.10
2022-09-30T04:01:21.571Z,12.60
2022-09-30T04:03:53.533Z,11.40
2022-09-30T04:06:24.187Z,12.00
2022-09-30T04:08:51.852Z,13.30
2022-09-30T04:13:46.587Z,13.10
2022-09-30T04:16:14.049Z,13.50
2022-09-30T04:21:14.598Z,12.00
2022-09-30T04:23:44.131Z,12.00
2022-09-30T04:26:15.234Z,12.10
2022-09-30T04:28:42.748Z,11.70
2022-09-30T04:31:12.384Z,12.10
2022-09-30T04:33:40.983Z,12.10
2022-09-30T04:36:08.209Z,11.90
2022-09-30T04:41:05.947Z,11.50
2022-09-30T04:48:31.407Z,11.80
2022-09-30T04:51:01.872Z,12.90
2022-09-30T04:56:02.582Z,11.40
2022-09-30T05:01:09.253Z,12.20
2022-09-30T05:06:07.409Z,11.90
2022-09-30T05:11:11.145Z,12.30
2022-09-30T05:13:40.785Z,12.20
2022-09-30T05:16:10.048Z,12.20
2022-09-30T05:18:39.561Z,11.50
2022-09-30T05:31:01.827Z,12.30
2022-09-30T05:33:30.705Z,13.20
2022-09-30T05:36:04.966Z,12.00
2022-09-30T05:38:32.574Z,12.70
2022-09-30T05:43:35.209Z,12.30
2022-09-30T05:50:59.905Z,13.30
2022-09-30T05:55:55.328Z,12.10
2022-09-30T06:00:50.507Z,12.30
2022-09-30T06:03:19.488Z,12.90
2022-09-30T06:05:46.672Z,12.00
2022-09-30T06:08:15.299Z,12.50
2022-09-30T06:10:44.807Z,12.30
2022-09-30T06:13:12.287Z,13.50
2022-09-30T06:18:09.954Z,12.50
2022-09-30T06:20:37.618Z,12.50
2022-09-30T06:23:05.290Z,12.50
2022-09-30T06:25:32.779Z,12.60
2022-09-30T06:28:00.103Z,11.60
2022-09-30T06:33:01.453Z,12.40
2022-09-30T06:35:29.037Z,12.00
2022-09-30T06:40:23.606Z,13.20
2022-09-30T06:42:50.852Z,12.80
2022-09-30T06:45:30.017Z,12.70
2022-09-30T06:48:01.496Z,12.50
2022-09-30T06:52:59.919Z,12.60
2022-09-30T06:55:28.979Z,12.80
2022-09-30T06:57:57.159Z,13.40
2022-09-30T07:00:26.407Z,12.60
2022-09-30T07:02:56.875Z,13.20
2022-09-30T07:05:28.004Z,12.70
2022-09-30T07:12:54.270Z,13.30
2022-09-30T07:15:23.328Z,13.50
2022-09-30T07:17:56.701Z,13.50
2022-09-30T07:27:47.207Z,12.60
2022-09-30T07:32:54.010Z,13.40
2022-09-30T07:37:50.876Z,12.80
2022-09-30T07:47:49.803Z,13.40
2022-09-30T07:50:20.823Z,13.90
2022-09-30T08:00:37.334Z,13.50
2022-09-30T08:02:59.002Z,14.10
2022-09-30T08:05:27.275Z,13.00
2022-09-30T08:10:21.942Z,13.90
2022-09-30T08:25:10.903Z,13.60
2022-09-30T08:27:38.072Z,13.80
2022-09-30T08:30:06.624Z,13.10
2022-09-30T08:32:33.787Z,13.70
2022-09-30T08:39:55.989Z,13.20
2022-09-30T08:45:37.113Z,13.50
2022-09-30T08:48:35.967Z,14.20
2022-09-30T08:51:33.869Z,13.50
2022-09-30T08:54:08.051Z,13.50
2022-09-30T08:59:20.718Z,12.30
2022-09-30T09:01:56.214Z,13.90
2022-09-30T09:07:05.274Z,13.90
2022-09-30T09:10:24.273Z,13.90
2022-09-30T09:13:13.815Z,14.80
2022-09-30T09:15:58.843Z,13.50
2022-09-30T09:18:57.454Z,14.30
2022-09-30T09:21:50.732Z,13.90
2022-09-30T09:24:27.367Z,13.40
2022-09-30T09:26:57.813Z,14.00
2022-09-30T09:29:52.735Z,12.90
2022-09-30T09:35:07.322Z,15.00
2022-09-30T09:38:14.901Z,13.80
2022-09-30T09:41:20.886Z,14.30
2022-09-30T09:44:34.471Z,14.90
2022-09-30T09:47:15.949Z,14.40
2022-09-30T09:50:04.844Z,15.00
2022-09-30T09:52:40.237Z,14.30
2022-09-30T09:55:09.667Z,14.20
2022-09-30T09:57:37.258Z,13.80
2022-09-30T10:00:45.235Z,15.10
2022-09-30T10:03:26.638Z,14.40
2022-09-30T10:06:14.052Z,14.80
2022-09-30T10:08:56.069Z,15.50
2022-09-30T10:11:28.056Z,14.70
2022-09-30T10:13:59.926Z,14.80
2022-09-30T10:16:36.806Z,14.90
2022-09-30T10:19:25.549Z,14.30
2022-09-30T10:22:14.300Z,14.30
2022-09-30T10:24:41.391Z,14.80
2022-09-30T10:27:34.976Z,14.70
2022-09-30T10:30:02.507Z,14.60
2022-09-30T10:35:07.355Z,14.90
2022-09-30T10:40:17.302Z,14.70
2022-09-30T10:42:48.581Z,15.00
2022-09-30T10:45:39.258Z,15.00
2022-09-30T10:48:18.904Z,15.40
2022-09-30T10:50:57.288Z,14.10
2022-09-30T10:53:29.829Z,15.40
2022-09-30T10:55:57.769Z,14.20
2022-09-30T11:01:38.494Z,15.50
2022-09-30T11:04:35.637Z,15.60
2022-09-30T11:07:33.828Z,15.90
2022-09-30T11:10:48.636Z,15.80
2022-09-30T11:13:42.122Z,17.40
2022-09-30T11:16:09.316Z,16.70
2022-09-30T11:18:54.053Z,16.20
2022-09-30T11:21:35.360Z,17.10
2022-09-30T11:24:41.998Z,16.50
2022-09-30T11:27:34.713Z,16.10
2022-09-30T11:30:19.624Z,16.50
2022-09-30T11:33:43.508Z,18.30
2022-09-30T11:36:33.734Z,17.40
2022-09-30T11:40:01.242Z,17.80
2022-09-30T11:42:40.413Z,17.50
2022-09-30T11:45:33.499Z,18.30
2022-09-30T11:48:36.680Z,17.70
2022-09-30T11:51:15.443Z,17.20
2022-09-30T11:54:20.059Z,18.20
2022-09-30T11:57:06.474Z,18.00
2022-09-30T11:59:43.506Z,18.20
2022-09-30T12:02:40.525Z,18.60
2022-09-30T12:05:26.741Z,18.30
2022-09-30T12:08:13.928Z,18.20
2022-09-30T12:10:52.201Z,18.40
2022-09-30T12:13:36.600Z,18.90
2022-09-30T12:16:12.615Z,18.70
2022-09-30T12:18:51.454Z,17.90
2022-09-30T12:21:30.228Z,18.30
2022-09-30T12:24:11.609Z,18.40
2022-09-30T12:26:41.573Z,18.30
2022-09-30T12:29:49.060Z,18.40
2022-09-30T12:33:04.013Z,18.00
2022-09-30T12:35:59.859Z,17.80
2022-09-30T12:41:38.015Z,17.40
2022-09-30T12:44:42.837Z,18.40
2022-09-30T12:47:25.002Z,17.90
2022-09-30T12:49:58.246Z,17.90
2022-09-30T12:52:31.445Z,17.00
2022-09-30T12:55:31.119Z,17.80
2022-09-30T12:58:02.357Z,17.10
2022-09-30T13:00:34.987Z,17.90
2022-09-30T13:03:18.626Z,19.40
2022-09-30T13:06:06.578Z,18.00
2022-09-30T13:08:48.141Z,17.20
2022-09-30T13:11:38.942Z,18.20
2022-09-30T13:14:44.328Z,18.00
2022-09-30T13:19:44.692Z,19.10
2022-09-30T13:22:20.987Z,18.00
2022-09-30T13:25:06.017Z,17.80
2022-09-30T13:27:51.542Z,18.40
2022-09-30T13:30:18.985Z,17.60
2022-09-30T13:32:47.969Z,18.70
2022-09-30T13:35:34.628Z,17.60
2022-09-30T13:38:10.901Z,17.40
2022-09-30T13:41:01.345Z,17.50
2022-09-30T13:44:03.343Z,18.00
2022-09-30T13:46:51.918Z,17.70
2022-09-30T13:49:42.433Z,16.40
2022-09-30T13:52:27.530Z,17.70
2022-09-30T13:55:04.043Z,18.90
2022-09-30T13:58:11.062Z,17.70
2022-09-30T14:01:08.517Z,16.90
2022-09-30T14:03:41.496Z,17.60
2022-09-30T14:07:02.512Z,17.60
2022-09-30T14:09:59.872Z,17.40
2022-09-30T14:13:06.292Z,16.90
2022-09-30T14:16:10.840Z,17.30
2022-09-30T14:19:15.302Z,17.90
2022-09-30T14:21:53.086Z,17.80
2022-09-30T14:24:33.935Z,17.60
2022-09-30T14:27:17.933Z,17.10
2022-09-30T14:30:16.942Z,17.30
2022-09-30T14:33:01.689Z,17.20
2022-09-30T14:35:33.886Z,16.70
2022-09-30T14:38:28.167Z,17.00
2022-09-30T14:41:00.940Z,17.00
2022-09-30T14:43:39.031Z,16.70
2022-09-30T14:46:23.562Z,17.70
2022-09-30T14:48:51.814Z,17.30
2022-09-30T14:51:23.753Z,17.00
2022-09-30T14:53:57.460Z,16.80
2022-09-30T14:56:32.142Z,16.70
2022-09-30T14:59:01.049Z,16.90
2022-09-30T15:01:36.019Z,16.90
2022-09-30T15:04:10.963Z,17.30
2022-09-30T15:06:45.684Z,16.40
2022-09-30T15:09:46.706Z,16.70
2022-09-30T15:12:24.987Z,15.80
2022-09-30T15:14:58.957Z,16.10
2022-09-30T15:17:37.949Z,16.10
2022-09-30T15:20:34.945Z,16.30
2022-09-30T15:23:18.983Z,16.10
2022-09-30T15:28:14.427Z,17.90
2022-09-30T15:33:23.811Z,15.40
2022-09-30T15:35:54.855Z,16.00
2022-09-30T15:38:27.569Z,14.90
2022-09-30T15:41:15.203Z,16.10
2022-09-30T15:43:52.104Z,15.30
2022-09-30T15:46:38.615Z,16.00
2022-09-30T15:49:31.370Z,16.10
2022-09-30T15:52:24.313Z,15.80
2022-09-30T15:54:51.686Z,15.60
2022-09-30T15:57:51.571Z,15.50
2022-09-30T16:00:39.652Z,16.20
2022-09-30T16:03:29.223Z,15.50
2022-09-30T16:06:14.267Z,15.20
2022-09-30T16:08:49.942Z,15.90
2022-09-30T16:11:32.908Z,15.40
2022-09-30T16:14:03.171Z,15.20
2022-09-30T16:16:35.625Z,15.70
2022-09-30T16:21:52.631Z,15.10
2022-09-30T16:24:22.646Z,15.10
2022-09-30T16:26:55.800Z,14.90
2022-09-30T16:31:55.185Z,15.00
2022-09-30T16:34:33.015Z,15.10
2022-09-30T16:37:17.692Z,15.70
2022-09-30T16:42:18.098Z,14.30
2022-09-30T16:47:16.290Z,15.10
2022-09-30T16:49:46.333Z,14.60
2022-09-30T16:52:14.535Z,14.70
2022-09-30T16:54:45.001Z,14.30
2022-09-30T16:57:14.889Z,15.40
2022-09-30T16:59:42.371Z,13.80
2022-09-30T17:02:14.866Z,14.50
2022-09-30T17:04:43.385Z,16.00
2022-09-30T17:07:14.610Z,15.10
2022-09-30T17:12:12.290Z,14.80
2022-09-30T17:14:43.375Z,13.20
2022-09-30T17:17:13.717Z,15.10
2022-09-30T17:19:41.487Z,15.00
2022-09-30T17:24:36.627Z,14.90
2022-09-30T17:29:32.867Z,14.50
2022-09-30T17:32:00.595Z,14.40
2022-09-30T17:34:30.387Z,12.90
2022-09-30T17:36:57.822Z,14.50
2022-09-30T17:39:28.205Z,14.10
2022-09-30T17:42:14.601Z,13.10
2022-09-30T17:44:42.599Z,13.30
2022-09-30T17:47:10.060Z,13.30
2022-09-30T17:49:37.639Z,12.90
2022-09-30T17:54:34.714Z,13.60
2022-09-30T17:57:03.122Z,13.70
2022-09-30T17:59:30.777Z,12.70
2022-09-30T18:01:59.830Z,12.00
2022-09-30T18:04:29.500Z,14.90
2022-09-30T18:06:58.017Z,14.80
2022-09-30T18:11:55.570Z,15.10
2022-09-30T18:14:25.427Z,12.80
2022-09-30T18:19:26.881Z,13.40
2022-09-30T18:21:56.882Z,13.10
2022-09-30T18:24:46.282Z,12.40
2022-09-30T18:32:25.685Z,14.20
2022-09-30T18:37:25.340Z,12.90
2022-09-30T18:42:24.088Z,14.30
2022-09-30T18:47:38.170Z,14.90
2022-09-30T18:50:10.578Z,14.90
2022-09-30T18:52:41.151Z,13.10
2022-09-30T18:55:14.924Z,13.70
2022-09-30T18:57:48.987Z,14.70
2022-09-30T19:00:23.251Z,13.70
2022-09-30T19:02:53.625Z,12.50
2022-09-30T19:07:54.563Z,14.20
2022-09-30T19:10:25.152Z,13.00
2022-09-30T19:15:24.422Z,12.80
2022-09-30T19:17:57.358Z,12.80
2022-09-30T19:22:54.862Z,14.90
2022-09-30T19:27:52.059Z,13.10
2022-09-30T19:32:49.982Z,13.70
2022-09-30T19:35:23.741Z,13.60
2022-09-30T19:38:02.660Z,15.00
2022-09-30T19:43:08.234Z,15.30
2022-09-30T19:48:03.987Z,14.10
2022-09-30T19:50:33.237Z,14.30
2022-09-30T19:53:00.680Z,13.20
2022-09-30T19:55:30.761Z,12.60
2022-09-30T19:57:58.727Z,14.10
2022-09-30T20:00:26.645Z,13.00
2022-09-30T20:10:20.553Z,14.70
2022-09-30T20:15:34.422Z,14.10
2022-09-30T20:18:01.889Z,15.10
2022-09-30T20:20:36.702Z,14.20
2022-09-30T20:23:05.039Z,13.10
2022-09-30T20:25:35.217Z,13.50
2022-09-30T20:28:04.391Z,14.80
2022-09-30T20:30:34.715Z,13.70
2022-09-30T20:35:29.696Z,13.20
2022-09-30T20:45:20.334Z,13.50
2022-09-30T20:47:47.798Z,13.10
2022-09-30T20:50:35.310Z,15.40
2022-09-30T20:53:10.409Z,13.50
2022-09-30T20:55:41.402Z,14.90
2022-09-30T20:58:11.369Z,13.40
2022-09-30T21:00:41.733Z,13.40
2022-09-30T21:03:13.849Z,13.90
2022-09-30T21:08:08.738Z,14.80
2022-09-30T21:10:38.842Z,13.50
2022-09-30T21:13:11.473Z,14.50
2022-09-30T21:18:07.400Z,14.30
2022-09-30T21:23:03.496Z,14.90
2022-09-30T21:25:32.031Z,14.30
2022-09-30T21:27:59.077Z,12.80
2022-09-30T21:37:49.802Z,13.30
2022-09-30T21:42:44.378Z,12.60
2022-09-30T21:55:07.264Z,14.70
2022-09-30T22:00:02.441Z,14.00
2022-09-30T22:02:29.881Z,14.30
2022-09-30T22:04:57.114Z,12.60
2022-09-30T22:14:47.439Z,13.10
2022-09-30T22:19:43.271Z,12.80
2022-09-30T22:22:11.439Z,13.20
2022-09-30T22:27:09.226Z,13.00
2022-09-30T22:32:03.914Z,12.70
2022-09-30T22:37:36.586Z,13.10
2022-09-30T22:42:31.602Z,12.60
2022-09-30T22:44:58.651Z,12.60
2022-09-30T22:47:25.789Z,13.00
2022-09-30T22:49:52.818Z,12.60
2022-09-30T22:54:47.609Z,12.90
2022-09-30T22:57:15.130Z,13.40
2022-09-30T23:02:10.470Z,13.50
2022-09-30T23:12:02.627Z,12.90
2022-09-30T23:14:29.830Z,12.90
2022-09-30T23:21:52.333Z,13.10
2022-09-30T23:24:19.744Z,12.90
2022-09-30T23:26:47.296Z,12.60
2022-09-30T23:31:43.198Z,11.30
2022-09-30T23:36:38.400Z,13.10
2022-09-30T23:39:18.607Z,13.00
2022-09-30T23:41:47.905Z,13.10
2022-09-30T23:47:07.483Z,13.00
2022-09-30T23:49:36.074Z,13.10
2022-09-30T23:52:12.703Z,13.10
2022-09-30T23:54:43.036Z,12.60
2022-09-30T23:57:11.353Z,13.60
